Tug Hawk — WCS9768 — position and weather

sailwx.info

Track history (hours):
 
Tides and Currents Weather Stations Pressure Air Temp Water Temp Dewpoint Dewpoint Depression Visibility Wind Speed Wind Dir Waves Ship Positions

Tug Hawk

Owner: Seabulk Towing, Inc., FORT LAUDERDALE, FL. More information available from US FCC via Universal Licensing System and Coast Guard Vessel Documentation Center.

Last reported at 2017-Dec-11 17:00 UTC. Time now 2017-Dec-14 00:35 UTC.
Position N 27°51' W 082°26'.

Length 32 m; draft 5 m.

Type: Tug. MMSI: 366943250.

Date/timePositionNaut miles runAvg speedWind from/ knotsBaromVisibWave heightAir tempDewpointWater temp
2017-Dec-11 17:00N 27°51' W 082°26'1 1.7
2017-Dec-11 16:30N 27°51' W 082°27'3 5.6
2017-Dec-11 16:00N 27°54' W 082°26'2 3.3
2017-Dec-11 15:30N 27°55' W 082°27'0 0.0
2017-Dec-11 15:00N 27°55' W 082°27'0 0.0
2017-Dec-11 14:30N 27°55' W 082°27'0 0.0
2017-Dec-11 14:00N 27°55' W 082°27'1 1.9
2017-Dec-11 13:30N 27°55' W 082°26'0 0.8
2017-Dec-11 13:00N 27°55' W 082°25'0 0.0
2017-Dec-11 12:30N 27°55' W 082°25'0 0.4
2017-Dec-11 12:00N 27°55' W 082°26'0 0.5
2017-Dec-11 11:30N 27°55' W 082°26'0 0.1
2017-Dec-11 11:01N 27°55' W 082°26'1 1.1
2017-Dec-11 10:30N 27°56' W 082°26'0 0.8
2017-Dec-11 10:00N 27°55' W 082°26'0 0.0
2017-Dec-11 09:30N 27°55' W 082°26'0 0.0
2017-Dec-11 09:00N 27°55' W 082°26'0 0.0
2017-Dec-11 08:30N 27°55' W 082°26'0 0.0
2017-Dec-11 08:00N 27°55' W 082°26'0 0.0
2017-Dec-11 07:30N 27°55' W 082°26'0 0.0
2017-Dec-11 07:00N 27°55' W 082°26'0 0.0
2017-Dec-11 06:30N 27°55' W 082°26'0 0.0
2017-Dec-11 06:00N 27°55' W 082°26'0 0.0
2017-Dec-11 05:30N 27°55' W 082°26'0 0.0
2017-Dec-11 05:00N 27°55' W 082°26'0 0.0
2017-Dec-11 04:30N 27°55' W 082°26'0 0.0
2017-Dec-11 04:00N 27°55' W 082°26'0 0.0
2017-Dec-11 03:30N 27°55' W 082°26'0 0.0
2017-Dec-11 03:00N 27°55' W 082°26'0 0.0
2017-Dec-11 02:30N 27°55' W 082°26'0 0.0
2017-Dec-11 02:00N 27°55' W 082°26'0 0.0
2017-Dec-11 01:30N 27°55' W 082°26'0 0.0
2017-Dec-11 01:00N 27°55' W 082°26'0 0.0
2017-Dec-11 00:30N 27°55' W 082°26'0 0.0
2017-Dec-11 00:00N 27°55' W 082°26'0 0.0
2017-Dec-10 23:30N 27°55' W 082°26'0 0.0
2017-Dec-10 23:00N 27°55' W 082°26'0 0.0
2017-Dec-10 22:30N 27°55' W 082°26'0 0.0
2017-Dec-10 22:00N 27°55' W 082°26'0 0.0
2017-Dec-10 21:30N 27°55' W 082°26'0 0.0
2017-Dec-10 21:00N 27°55' W 082°26'0 0.0
2017-Dec-10 20:30N 27°55' W 082°26'0 0.0
2017-Dec-10 20:00N 27°55' W 082°26'0 0.6
2017-Dec-10 19:30N 27°56' W 082°26'0 0.3
2017-Dec-10 19:00N 27°56' W 082°26'0 0.3
2017-Dec-10 18:30N 27°56' W 082°26'2 3.7
2017-Dec-10 18:00N 27°54' W 082°26'510.1
2017-Dec-10 17:30N 27°49' W 082°27'2 3.9
2017-Dec-10 17:00N 27°48' W 082°25'0 0.4
2017-Dec-10 16:30N 27°48' W 082°24'5 9.8
2017-Dec-10 16:00N 27°48' W 082°30'510.7
2017-Dec-10 15:30N 27°43' W 082°33'5 0.1
2017-Dec-09 07:22N 27°38' W 082°34'0 0.0
2017-Dec-08 22:41N 27°38' W 082°34'210.8
2017-Dec-08 22:30N 27°39' W 082°36'5 9.3
2017-Dec-08 22:00N 27°43' W 082°32'5 9.7
2017-Dec-08 21:30N 27°47' W 082°30'5 9.8
2017-Dec-08 21:00N 27°51' W 082°26'2 4.4
2017-Dec-08 20:28N 27°51' W 082°24'1 2.3
2017-Dec-08 20:00N 27°51' W 082°25'2 4.8
2017-Dec-08 19:30N 27°50' W 082°27'510.3
2017-Dec-08 19:00N 27°46' W 082°31'5 0.9
2017-Dec-08 13:42N 27°42' W 082°33'212.8
2017-Dec-08 13:30N 27°44' W 082°32'510.6
2017-Dec-08 13:00N 27°48' W 082°28'611.3
2017-Dec-08 12:30N 27°54' W 082°26'1 3.0
2017-Dec-08 12:00N 27°55' W 082°27'0 0.5
2017-Dec-08 11:30N 27°55' W 082°27'0 0.0
2017-Dec-08 11:00N 27°55' W 082°27'0 0.0
2017-Dec-08 10:30N 27°55' W 082°27'0 0.0
2017-Dec-08 10:00N 27°55' W 082°27'0 0.0
2017-Dec-08 09:30N 27°55' W 082°27'0 0.0
2017-Dec-08 09:00N 27°55' W 082°27'0 0.0
2017-Dec-08 08:30N 27°55' W 082°27'0 0.0
2017-Dec-08 08:00N 27°55' W 082°27'0 0.0
2017-Dec-08 07:30N 27°55' W 082°27'0 0.0
2017-Dec-08 07:00N 27°55' W 082°27'0 0.0
2017-Dec-08 06:30N 27°55' W 082°27'0 0.0
2017-Dec-08 06:00N 27°55' W 082°27'1 1.8
2017-Dec-08 05:30N 27°54' W 082°26'0 0.0
2017-Dec-08 05:00N 27°54' W 082°26'0 0.0
2017-Dec-08 04:30N 27°54' W 082°26'0 0.0
2017-Dec-08 04:00N 27°54' W 082°26'0 0.0
2017-Dec-08 03:30N 27°54' W 082°26'0 0.0
2017-Dec-08 03:00N 27°54' W 082°26'0 0.0
2017-Dec-08 02:30N 27°54' W 082°26'0 0.0
2017-Dec-08 02:00N 27°54' W 082°26'0 0.0
2017-Dec-08 01:30N 27°54' W 082°26'0 0.0
2017-Dec-08 01:00N 27°54' W 082°26'0 0.0
2017-Dec-08 00:30N 27°54' W 082°26'0 0.0
2017-Dec-08 00:00N 27°55' W 082°26'0 0.0
2017-Dec-07 23:30N 27°55' W 082°26'0 0.0
2017-Dec-07 23:00N 27°55' W 082°26'1 1.3
2017-Dec-07 22:30N 27°55' W 082°27'2 4.5
2017-Dec-07 22:00N 27°53' W 082°27'3 5.0
2017-Dec-07 21:30N 27°50' W 082°27'3 5.5
2017-Dec-07 21:00N 27°48' W 082°24'0 0.0
2017-Dec-07 20:30N 27°48' W 082°24'0 0.0
2017-Dec-07 20:00N 27°48' W 082°24'0 0.0
2017-Dec-07 19:30N 27°48' W 082°24'0 0.3
2017-Dec-07 19:00N 27°48' W 082°25'0 0.5
2017-Dec-07 18:30N 27°48' W 082°25'2 3.4
2017-Dec-07 18:00N 27°49' W 082°27'0 0.3
2017-Dec-07 17:30N 27°49' W 082°27'1 1.5
2017-Dec-07 17:00N 27°48' W 082°28'5 8.3
2017-Dec-07 16:28N 27°47' W 082°33'3 6.7
2017-Dec-07 16:00N 27°50' W 082°34'2 4.0
2017-Dec-07 15:30N 27°52' W 082°33'0 0.0
2017-Dec-07 15:00N 27°52' W 082°33'0 0.0
2017-Dec-07 14:30N 27°52' W 082°33'0 0.0
2017-Dec-07 14:00N 27°52' W 082°33'0 0.0
2017-Dec-07 13:30N 27°52' W 082°33'0 0.0
2017-Dec-07 13:00N 27°52' W 082°33'0 0.0
2017-Dec-07 12:30N 27°52' W 082°33'0 0.0
2017-Dec-07 12:00N 27°52' W 082°33'0 0.0
2017-Dec-07 11:30N 27°52' W 082°33'0 0.0
2017-Dec-07 11:00N 27°52' W 082°33'0 0.0
2017-Dec-07 10:30N 27°52' W 082°33'0 0.0
2017-Dec-07 10:00N 27°52' W 082°33'0 0.0
2017-Dec-07 09:30N 27°52' W 082°33'0 0.0
2017-Dec-07 09:00N 27°52' W 082°33'0 0.0
2017-Dec-07 08:30N 27°52' W 082°33'0 0.0
2017-Dec-07 08:00N 27°52' W 082°33'0 0.0
2017-Dec-07 07:30N 27°52' W 082°33'0 0.0
2017-Dec-07 07:00N 27°52' W 082°33'0 0.0
2017-Dec-07 06:30N 27°52' W 082°33'0 0.0
2017-Dec-07 06:00N 27°52' W 082°33'0 0.0
2017-Dec-07 05:30N 27°52' W 082°33'0 0.0
2017-Dec-07 05:00N 27°52' W 082°33'0 0.0
2017-Dec-07 04:30N 27°52' W 082°33'0 0.0
2017-Dec-07 04:00N 27°52' W 082°33'0 0.0
2017-Dec-07 03:30N 27°52' W 082°33'0 0.0
2017-Dec-07 03:00N 27°52' W 082°33'0 0.0
2017-Dec-07 02:30N 27°52' W 082°33'0 0.0
2017-Dec-07 02:00N 27°52' W 082°33'0 0.0
2017-Dec-07 01:30N 27°52' W 082°33'0 0.0
2017-Dec-07 01:00N 27°52' W 082°33'0 0.0
2017-Dec-07 00:30N 27°52' W 082°33'0 0.5
2017-Dec-07 00:00N 27°52' W 082°33'0 0.2
2017-Dec-06 23:30N 27°52' W 082°33'4 7.3
2017-Dec-06 23:00N 27°48' W 082°34'4 7.4
2017-Dec-06 22:30N 27°47' W 082°30'4 8.2
2017-Dec-06 22:00N 27°50' W 082°27'4 8.8
2017-Dec-06 21:30N 27°54' W 082°26'1 2.0
2017-Dec-06 21:00N 27°55' W 082°27'  
2017-Dec-04 10:30N 27°55' W 082°27'0 0.0
2017-Dec-04 10:00N 27°55' W 082°27'0 0.0
2017-Dec-04 09:30N 27°55' W 082°27'0 0.0
2017-Dec-04 09:00N 27°55' W 082°27'0 0.0
2017-Dec-04 08:30N 27°55' W 082°27'0 0.0
2017-Dec-04 08:00N 27°55' W 082°27'0 0.0
2017-Dec-04 07:30N 27°55' W 082°27'0 0.0
2017-Dec-04 07:00N 27°55' W 082°27'0 0.0
2017-Dec-04 06:30N 27°55' W 082°27'0 0.0
2017-Dec-04 06:00N 27°55' W 082°27'0 0.0
2017-Dec-04 05:30N 27°55' W 082°27'0 0.0
2017-Dec-04 05:00N 27°55' W 082°27'0 0.0
2017-Dec-04 04:30N 27°55' W 082°27'0 0.0
2017-Dec-04 04:00N 27°55' W 082°27'0 0.0
2017-Dec-04 03:30N 27°55' W 082°27'0 0.0
2017-Dec-04 03:00N 27°55' W 082°27'0 0.0
2017-Dec-04 02:30N 27°55' W 082°27'0 0.0
2017-Dec-04 02:00N 27°55' W 082°27'0 0.0
2017-Dec-04 01:30N 27°55' W 082°27'0 0.0
2017-Dec-04 01:00N 27°55' W 082°27'0 0.0
2017-Dec-04 00:30N 27°55' W 082°27'0 0.0
2017-Dec-04 00:00N 27°55' W 082°27'0 0.0
2017-Dec-03 23:30N 27°55' W 082°27'0 0.0
2017-Dec-03 23:00N 27°55' W 082°27'0 0.0
2017-Dec-03 22:30N 27°55' W 082°27'0 0.0
2017-Dec-03 22:00N 27°55' W 082°27'0 0.0
2017-Dec-03 21:30N 27°55' W 082°27'0 0.0
2017-Dec-03 21:00N 27°55' W 082°27'0 0.0
2017-Dec-03 20:30N 27°55' W 082°27'0 0.0
2017-Dec-03 20:00N 27°55' W 082°27'1 2.6
2017-Dec-03 19:30N 27°54' W 082°26'1 1.1
2017-Dec-03 19:00N 27°54' W 082°25'0 0.0
2017-Dec-03 18:30N 27°54' W 082°25'1 1.9
2017-Dec-03 18:00N 27°55' W 082°25'0 0.2
2017-Dec-03 17:30N 27°55' W 082°25'2 3.4
2017-Dec-03 17:00N 27°54' W 082°26'5 7.7
2017-Dec-03 16:22N 27°49' W 082°27'1 3.1
2017-Dec-03 16:00N 27°49' W 082°26'1 2.0
2017-Dec-03 15:30N 27°48' W 082°25'0 0.9
2017-Dec-03 15:00N 27°48' W 082°25'4 7.8
2017-Dec-03 14:30N 27°52' W 082°27'3 6.4
2017-Dec-03 14:00N 27°55' W 082°27'0 0.0
2017-Dec-03 13:30N 27°55' W 082°27'0 0.0
2017-Dec-03 13:00N 27°55' W 082°27'0 0.0
2017-Dec-03 12:30N 27°55' W 082°27'0 0.0
2017-Dec-03 12:00N 27°55' W 082°27'0 0.0
2017-Dec-03 11:30N 27°55' W 082°27'0 0.0
2017-Dec-03 11:00N 27°55' W 082°27'0 0.0
2017-Dec-03 10:30N 27°55' W 082°27'0 0.0
2017-Dec-03 10:00N 27°55' W 082°27'0 0.0
2017-Dec-03 09:30N 27°55' W 082°27'0 0.0
2017-Dec-03 09:00N 27°55' W 082°27'1 2.4
2017-Dec-03 08:30N 27°54' W 082°26'1 2.9
2017-Dec-03 08:00N 27°56' W 082°26'1 1.8
2017-Dec-03 07:30N 27°55' W 082°27'0 0.0
2017-Dec-03 07:00N 27°55' W 082°27'0 0.0
2017-Dec-03 06:30N 27°55' W 082°27'0 0.0
2017-Dec-03 06:00N 27°55' W 082°27'0 0.0
2017-Dec-03 05:30N 27°55' W 082°27'0 0.0
2017-Dec-03 05:00N 27°55' W 082°27'0 0.0
2017-Dec-03 04:30N 27°55' W 082°27'0 0.0
2017-Dec-03 04:00N 27°55' W 082°27'0 0.0
2017-Dec-03 03:30N 27°55' W 082°27'0 0.0
2017-Dec-03 03:00N 27°55' W 082°27'0 0.0
2017-Dec-03 02:30N 27°55' W 082°27'0 0.0
2017-Dec-03 02:00N 27°55' W 082°27'0 0.0
2017-Dec-03 01:30N 27°55' W 082°27'0 0.0
2017-Dec-03 01:00N 27°55' W 082°27'0 0.0
2017-Dec-03 00:30N 27°55' W 082°27'0 0.0
2017-Dec-03 00:00N 27°55' W 082°27'0 0.0
2017-Dec-02 23:30N 27°55' W 082°27'0 0.0
2017-Dec-02 23:00N 27°55' W 082°27'0 0.0
2017-Dec-02 22:30N 27°55' W 082°27'0 0.0
2017-Dec-02 22:00N 27°55' W 082°27'0 0.0
2017-Dec-02 21:30N 27°55' W 082°27'0 0.0
2017-Dec-02 21:00N 27°55' W 082°27'0 0.0
2017-Dec-02 20:30N 27°55' W 082°27'0 0.0
2017-Dec-02 20:00N 27°55' W 082°27'0 0.0
2017-Dec-02 19:30N 27°55' W 082°27'0 0.0
2017-Dec-02 19:00N 27°55' W 082°27'0 0.0
2017-Dec-02 18:30N 27°55' W 082°27'0 0.8
2017-Dec-02 18:01N 27°56' W 082°27'1 2.1
2017-Dec-02 17:30N 27°57' W 082°27'1 2.1
2017-Dec-02 17:00N 27°56' W 082°27'4 8.8
2017-Dec-02 16:30N 27°51' W 082°27'4 8.1
2017-Dec-02 16:00N 27°48' W 082°29'4 8.0
2017-Dec-02 15:30N 27°45' W 082°32'6 8.5
2017-Dec-02 14:45N 27°39' W 082°35'2 2.6
2017-Dec-02 14:05N 27°38' W 082°34'0 0.3
2017-Dec-02 14:00N 27°38' W 082°34'1 2.8
2017-Dec-02 13:29N 27°39' W 082°35'2 3.4
2017-Dec-02 12:58N 27°38' W 082°34'0 0.0
2017-Dec-02 08:28N 27°38' W 082°34'0 0.0
2017-Dec-02 02:40N 27°38' W 082°34'1 7.3
2017-Dec-02 02:30N 27°39' W 082°35'3 6.6
2017-Dec-02 02:00N 27°42' W 082°33'4 8.9
2017-Dec-02 01:30N 27°46' W 082°31'4 8.3
2017-Dec-02 01:00N 27°48' W 082°28'4 8.9
2017-Dec-02 00:30N 27°53' W 082°26'2 4.5
2017-Dec-02 00:00N 27°55' W 082°27'5 9.5
2017-Dec-01 23:30N 27°50' W 082°27'3 5.2
2017-Dec-01 23:00N 27°48' W 082°25'0 0.4
2017-Dec-01 22:30N 27°48' W 082°25'2 3.5
2017-Dec-01 22:00N 27°49' W 082°27'3 6.4
2017-Dec-01 21:30N 27°52' W 082°27'3 6.9
2017-Dec-01 21:00N 27°55' W 082°26'1 1.1
2017-Dec-01 20:30N 27°56' W 082°26'0 0.1
2017-Dec-01 20:00N 27°56' W 082°26'1 2.0
2017-Dec-01 19:30N 27°55' W 082°27'0 0.3
2017-Dec-01 19:00N 27°55' W 082°27'0 0.0
2017-Dec-01 18:30N 27°55' W 082°27'0 0.0
2017-Dec-01 18:00N 27°55' W 082°27'0 0.0
2017-Dec-01 17:30N 27°55' W 082°27'0 0.0
2017-Dec-01 17:00N 27°55' W 082°27'  
Track history (hours):
 
Tides and Currents Weather Stations Pressure Air Temp Water Temp Dewpoint Dewpoint Depression Visibility Wind Speed Wind Dir Waves Ship Positions

Tug Hawk

Owner: Seabulk Towing, Inc., FORT LAUDERDALE, FL. More information available from US FCC via Universal Licensing System and Coast Guard Vessel Documentation Center.

Last reported at 2017-Dec-11 17:00 UTC. Time now 2017-Dec-14 00:35 UTC.
Position N 27°51' W 082°26'.

Length 32 m; draft 5 m.

Type: Tug. MMSI: 366943250.

Date/timePositionNaut miles runAvg speedWind from/ knotsBaromVisibWave heightAir tempDewpointWater temp
2017-Dec-11 17:00N 27°51' W 082°26'1 1.7
2017-Dec-11 16:30N 27°51' W 082°27'3 5.6
2017-Dec-11 16:00N 27°54' W 082°26'2 3.3
2017-Dec-11 15:30N 27°55' W 082°27'0 0.0
2017-Dec-11 15:00N 27°55' W 082°27'0 0.0
2017-Dec-11 14:30N 27°55' W 082°27'0 0.0
2017-Dec-11 14:00N 27°55' W 082°27'1 1.9
2017-Dec-11 13:30N 27°55' W 082°26'0 0.8
2017-Dec-11 13:00N 27°55' W 082°25'0 0.0
2017-Dec-11 12:30N 27°55' W 082°25'0 0.4
2017-Dec-11 12:00N 27°55' W 082°26'0 0.5
2017-Dec-11 11:30N 27°55' W 082°26'0 0.1
2017-Dec-11 11:01N 27°55' W 082°26'1 1.1
2017-Dec-11 10:30N 27°56' W 082°26'0 0.8
2017-Dec-11 10:00N 27°55' W 082°26'0 0.0
2017-Dec-11 09:30N 27°55' W 082°26'0 0.0
2017-Dec-11 09:00N 27°55' W 082°26'0 0.0
2017-Dec-11 08:30N 27°55' W 082°26'0 0.0
2017-Dec-11 08:00N 27°55' W 082°26'0 0.0
2017-Dec-11 07:30N 27°55' W 082°26'0 0.0
2017-Dec-11 07:00N 27°55' W 082°26'0 0.0
2017-Dec-11 06:30N 27°55' W 082°26'0 0.0
2017-Dec-11 06:00N 27°55' W 082°26'0 0.0
2017-Dec-11 05:30N 27°55' W 082°26'0 0.0
2017-Dec-11 05:00N 27°55' W 082°26'0 0.0
2017-Dec-11 04:30N 27°55' W 082°26'0 0.0
2017-Dec-11 04:00N 27°55' W 082°26'0 0.0
2017-Dec-11 03:30N 27°55' W 082°26'0 0.0
2017-Dec-11 03:00N 27°55' W 082°26'0 0.0
2017-Dec-11 02:30N 27°55' W 082°26'0 0.0
2017-Dec-11 02:00N 27°55' W 082°26'0 0.0
2017-Dec-11 01:30N 27°55' W 082°26'0 0.0
2017-Dec-11 01:00N 27°55' W 082°26'0 0.0
2017-Dec-11 00:30N 27°55' W 082°26'0 0.0
2017-Dec-11 00:00N 27°55' W 082°26'0 0.0
2017-Dec-10 23:30N 27°55' W 082°26'0 0.0
2017-Dec-10 23:00N 27°55' W 082°26'0 0.0
2017-Dec-10 22:30N 27°55' W 082°26'0 0.0
2017-Dec-10 22:00N 27°55' W 082°26'0 0.0
2017-Dec-10 21:30N 27°55' W 082°26'0 0.0
2017-Dec-10 21:00N 27°55' W 082°26'0 0.0
2017-Dec-10 20:30N 27°55' W 082°26'0 0.0
2017-Dec-10 20:00N 27°55' W 082°26'0 0.6
2017-Dec-10 19:30N 27°56' W 082°26'0 0.3
2017-Dec-10 19:00N 27°56' W 082°26'0 0.3
2017-Dec-10 18:30N 27°56' W 082°26'2 3.7
2017-Dec-10 18:00N 27°54' W 082°26'510.1
2017-Dec-10 17:30N 27°49' W 082°27'2 3.9
2017-Dec-10 17:00N 27°48' W 082°25'0 0.4
2017-Dec-10 16:30N 27°48' W 082°24'5 9.8
2017-Dec-10 16:00N 27°48' W 082°30'510.7
2017-Dec-10 15:30N 27°43' W 082°33'5 0.1
2017-Dec-09 07:22N 27°38' W 082°34'0 0.0
2017-Dec-08 22:41N 27°38' W 082°34'210.8
2017-Dec-08 22:30N 27°39' W 082°36'5 9.3
2017-Dec-08 22:00N 27°43' W 082°32'5 9.7
2017-Dec-08 21:30N 27°47' W 082°30'5 9.8
2017-Dec-08 21:00N 27°51' W 082°26'2 4.4
2017-Dec-08 20:28N 27°51' W 082°24'1 2.3
2017-Dec-08 20:00N 27°51' W 082°25'2 4.8
2017-Dec-08 19:30N 27°50' W 082°27'510.3
2017-Dec-08 19:00N 27°46' W 082°31'5 0.9
2017-Dec-08 13:42N 27°42' W 082°33'212.8
2017-Dec-08 13:30N 27°44' W 082°32'510.6
2017-Dec-08 13:00N 27°48' W 082°28'611.3
2017-Dec-08 12:30N 27°54' W 082°26'1 3.0
2017-Dec-08 12:00N 27°55' W 082°27'0 0.5
2017-Dec-08 11:30N 27°55' W 082°27'0 0.0
2017-Dec-08 11:00N 27°55' W 082°27'0 0.0
2017-Dec-08 10:30N 27°55' W 082°27'0 0.0
2017-Dec-08 10:00N 27°55' W 082°27'0 0.0
2017-Dec-08 09:30N 27°55' W 082°27'0 0.0
2017-Dec-08 09:00N 27°55' W 082°27'0 0.0
2017-Dec-08 08:30N 27°55' W 082°27'0 0.0
2017-Dec-08 08:00N 27°55' W 082°27'0 0.0
2017-Dec-08 07:30N 27°55' W 082°27'0 0.0
2017-Dec-08 07:00N 27°55' W 082°27'0 0.0
2017-Dec-08 06:30N 27°55' W 082°27'0 0.0
2017-Dec-08 06:00N 27°55' W 082°27'1 1.8
2017-Dec-08 05:30N 27°54' W 082°26'0 0.0
2017-Dec-08 05:00N 27°54' W 082°26'0 0.0
2017-Dec-08 04:30N 27°54' W 082°26'0 0.0
2017-Dec-08 04:00N 27°54' W 082°26'0 0.0
2017-Dec-08 03:30N 27°54' W 082°26'0 0.0
2017-Dec-08 03:00N 27°54' W 082°26'0 0.0
2017-Dec-08 02:30N 27°54' W 082°26'0 0.0
2017-Dec-08 02:00N 27°54' W 082°26'0 0.0
2017-Dec-08 01:30N 27°54' W 082°26'0 0.0
2017-Dec-08 01:00N 27°54' W 082°26'0 0.0
2017-Dec-08 00:30N 27°54' W 082°26'0 0.0
2017-Dec-08 00:00N 27°55' W 082°26'0 0.0
2017-Dec-07 23:30N 27°55' W 082°26'0 0.0
2017-Dec-07 23:00N 27°55' W 082°26'1 1.3
2017-Dec-07 22:30N 27°55' W 082°27'2 4.5
2017-Dec-07 22:00N 27°53' W 082°27'3 5.0
2017-Dec-07 21:30N 27°50' W 082°27'3 5.5
2017-Dec-07 21:00N 27°48' W 082°24'0 0.0
2017-Dec-07 20:30N 27°48' W 082°24'0 0.0
2017-Dec-07 20:00N 27°48' W 082°24'0 0.0
2017-Dec-07 19:30N 27°48' W 082°24'0 0.3
2017-Dec-07 19:00N 27°48' W 082°25'0 0.5
2017-Dec-07 18:30N 27°48' W 082°25'2 3.4
2017-Dec-07 18:00N 27°49' W 082°27'0 0.3
2017-Dec-07 17:30N 27°49' W 082°27'1 1.5
2017-Dec-07 17:00N 27°48' W 082°28'5 8.3
2017-Dec-07 16:28N 27°47' W 082°33'3 6.7
2017-Dec-07 16:00N 27°50' W 082°34'2 4.0
2017-Dec-07 15:30N 27°52' W 082°33'0 0.0
2017-Dec-07 15:00N 27°52' W 082°33'0 0.0
2017-Dec-07 14:30N 27°52' W 082°33'0 0.0
2017-Dec-07 14:00N 27°52' W 082°33'0 0.0
2017-Dec-07 13:30N 27°52' W 082°33'0 0.0
2017-Dec-07 13:00N 27°52' W 082°33'0 0.0
2017-Dec-07 12:30N 27°52' W 082°33'0 0.0
2017-Dec-07 12:00N 27°52' W 082°33'0 0.0
2017-Dec-07 11:30N 27°52' W 082°33'0 0.0
2017-Dec-07 11:00N 27°52' W 082°33'0 0.0
2017-Dec-07 10:30N 27°52' W 082°33'0 0.0
2017-Dec-07 10:00N 27°52' W 082°33'0 0.0
2017-Dec-07 09:30N 27°52' W 082°33'0 0.0
2017-Dec-07 09:00N 27°52' W 082°33'0 0.0
2017-Dec-07 08:30N 27°52' W 082°33'0 0.0
2017-Dec-07 08:00N 27°52' W 082°33'0 0.0
2017-Dec-07 07:30N 27°52' W 082°33'0 0.0
2017-Dec-07 07:00N 27°52' W 082°33'0 0.0
2017-Dec-07 06:30N 27°52' W 082°33'0 0.0
2017-Dec-07 06:00N 27°52' W 082°33'0 0.0
2017-Dec-07 05:30N 27°52' W 082°33'0 0.0
2017-Dec-07 05:00N 27°52' W 082°33'0 0.0
2017-Dec-07 04:30N 27°52' W 082°33'0 0.0
2017-Dec-07 04:00N 27°52' W 082°33'0 0.0
2017-Dec-07 03:30N 27°52' W 082°33'0 0.0
2017-Dec-07 03:00N 27°52' W 082°33'0 0.0
2017-Dec-07 02:30N 27°52' W 082°33'0 0.0
2017-Dec-07 02:00N 27°52' W 082°33'0 0.0
2017-Dec-07 01:30N 27°52' W 082°33'0 0.0
2017-Dec-07 01:00N 27°52' W 082°33'0 0.0
2017-Dec-07 00:30N 27°52' W 082°33'0 0.5
2017-Dec-07 00:00N 27°52' W 082°33'0 0.2
2017-Dec-06 23:30N 27°52' W 082°33'4 7.3
2017-Dec-06 23:00N 27°48' W 082°34'4 7.4
2017-Dec-06 22:30N 27°47' W 082°30'4 8.2
2017-Dec-06 22:00N 27°50' W 082°27'4 8.8
2017-Dec-06 21:30N 27°54' W 082°26'1 2.0
2017-Dec-06 21:00N 27°55' W 082°27'  
2017-Dec-04 10:30N 27°55' W 082°27'0 0.0
2017-Dec-04 10:00N 27°55' W 082°27'0 0.0
2017-Dec-04 09:30N 27°55' W 082°27'0 0.0
2017-Dec-04 09:00N 27°55' W 082°27'0 0.0
2017-Dec-04 08:30N 27°55' W 082°27'0 0.0
2017-Dec-04 08:00N 27°55' W 082°27'0 0.0
2017-Dec-04 07:30N 27°55' W 082°27'0 0.0
2017-Dec-04 07:00N 27°55' W 082°27'0 0.0
2017-Dec-04 06:30N 27°55' W 082°27'0 0.0
2017-Dec-04 06:00N 27°55' W 082°27'0 0.0
2017-Dec-04 05:30N 27°55' W 082°27'0 0.0
2017-Dec-04 05:00N 27°55' W 082°27'0 0.0
2017-Dec-04 04:30N 27°55' W 082°27'0 0.0
2017-Dec-04 04:00N 27°55' W 082°27'0 0.0
2017-Dec-04 03:30N 27°55' W 082°27'0 0.0
2017-Dec-04 03:00N 27°55' W 082°27'0 0.0
2017-Dec-04 02:30N 27°55' W 082°27'0 0.0
2017-Dec-04 02:00N 27°55' W 082°27'0 0.0
2017-Dec-04 01:30N 27°55' W 082°27'0 0.0
2017-Dec-04 01:00N 27°55' W 082°27'0 0.0
2017-Dec-04 00:30N 27°55' W 082°27'0 0.0
2017-Dec-04 00:00N 27°55' W 082°27'0 0.0
2017-Dec-03 23:30N 27°55' W 082°27'0 0.0
2017-Dec-03 23:00N 27°55' W 082°27'0 0.0
2017-Dec-03 22:30N 27°55' W 082°27'0 0.0
2017-Dec-03 22:00N 27°55' W 082°27'0 0.0
2017-Dec-03 21:30N 27°55' W 082°27'0 0.0
2017-Dec-03 21:00N 27°55' W 082°27'0 0.0
2017-Dec-03 20:30N 27°55' W 082°27'0 0.0
2017-Dec-03 20:00N 27°55' W 082°27'1 2.6
2017-Dec-03 19:30N 27°54' W 082°26'1 1.1
2017-Dec-03 19:00N 27°54' W 082°25'0 0.0
2017-Dec-03 18:30N 27°54' W 082°25'1 1.9
2017-Dec-03 18:00N 27°55' W 082°25'0 0.2
2017-Dec-03 17:30N 27°55' W 082°25'2 3.4
2017-Dec-03 17:00N 27°54' W 082°26'5 7.7
2017-Dec-03 16:22N 27°49' W 082°27'1 3.1
2017-Dec-03 16:00N 27°49' W 082°26'1 2.0
2017-Dec-03 15:30N 27°48' W 082°25'0 0.9
2017-Dec-03 15:00N 27°48' W 082°25'4 7.8
2017-Dec-03 14:30N 27°52' W 082°27'3 6.4
2017-Dec-03 14:00N 27°55' W 082°27'0 0.0
2017-Dec-03 13:30N 27°55' W 082°27'0 0.0
2017-Dec-03 13:00N 27°55' W 082°27'0 0.0
2017-Dec-03 12:30N 27°55' W 082°27'0 0.0
2017-Dec-03 12:00N 27°55' W 082°27'0 0.0
2017-Dec-03 11:30N 27°55' W 082°27'0 0.0
2017-Dec-03 11:00N 27°55' W 082°27'0 0.0
2017-Dec-03 10:30N 27°55' W 082°27'0 0.0
2017-Dec-03 10:00N 27°55' W 082°27'0 0.0
2017-Dec-03 09:30N 27°55' W 082°27'0 0.0
2017-Dec-03 09:00N 27°55' W 082°27'1 2.4
2017-Dec-03 08:30N 27°54' W 082°26'1 2.9
2017-Dec-03 08:00N 27°56' W 082°26'1 1.8
2017-Dec-03 07:30N 27°55' W 082°27'0 0.0
2017-Dec-03 07:00N 27°55' W 082°27'0 0.0
2017-Dec-03 06:30N 27°55' W 082°27'0 0.0
2017-Dec-03 06:00N 27°55' W 082°27'0 0.0
2017-Dec-03 05:30N 27°55' W 082°27'0 0.0
2017-Dec-03 05:00N 27°55' W 082°27'0 0.0
2017-Dec-03 04:30N 27°55' W 082°27'0 0.0
2017-Dec-03 04:00N 27°55' W 082°27'0 0.0
2017-Dec-03 03:30N 27°55' W 082°27'0 0.0
2017-Dec-03 03:00N 27°55' W 082°27'0 0.0
2017-Dec-03 02:30N 27°55' W 082°27'0 0.0
2017-Dec-03 02:00N 27°55' W 082°27'0 0.0
2017-Dec-03 01:30N 27°55' W 082°27'0 0.0
2017-Dec-03 01:00N 27°55' W 082°27'0 0.0
2017-Dec-03 00:30N 27°55' W 082°27'0 0.0
2017-Dec-03 00:00N 27°55' W 082°27'0 0.0
2017-Dec-02 23:30N 27°55' W 082°27'0 0.0
2017-Dec-02 23:00N 27°55' W 082°27'0 0.0
2017-Dec-02 22:30N 27°55' W 082°27'0 0.0
2017-Dec-02 22:00N 27°55' W 082°27'0 0.0
2017-Dec-02 21:30N 27°55' W 082°27'0 0.0
2017-Dec-02 21:00N 27°55' W 082°27'0 0.0
2017-Dec-02 20:30N 27°55' W 082°27'0 0.0
2017-Dec-02 20:00N 27°55' W 082°27'0 0.0
2017-Dec-02 19:30N 27°55' W 082°27'0 0.0
2017-Dec-02 19:00N 27°55' W 082°27'0 0.0
2017-Dec-02 18:30N 27°55' W 082°27'0 0.8
2017-Dec-02 18:01N 27°56' W 082°27'1 2.1
2017-Dec-02 17:30N 27°57' W 082°27'1 2.1
2017-Dec-02 17:00N 27°56' W 082°27'4 8.8
2017-Dec-02 16:30N 27°51' W 082°27'4 8.1
2017-Dec-02 16:00N 27°48' W 082°29'4 8.0
2017-Dec-02 15:30N 27°45' W 082°32'6 8.5
2017-Dec-02 14:45N 27°39' W 082°35'2 2.6
2017-Dec-02 14:05N 27°38' W 082°34'0 0.3
2017-Dec-02 14:00N 27°38' W 082°34'1 2.8
2017-Dec-02 13:29N 27°39' W 082°35'2 3.4
2017-Dec-02 12:58N 27°38' W 082°34'0 0.0
2017-Dec-02 08:28N 27°38' W 082°34'0 0.0
2017-Dec-02 02:40N 27°38' W 082°34'1 7.3
2017-Dec-02 02:30N 27°39' W 082°35'3 6.6
2017-Dec-02 02:00N 27°42' W 082°33'4 8.9
2017-Dec-02 01:30N 27°46' W 082°31'4 8.3
2017-Dec-02 01:00N 27°48' W 082°28'4 8.9
2017-Dec-02 00:30N 27°53' W 082°26'2 4.5
2017-Dec-02 00:00N 27°55' W 082°27'5 9.5
2017-Dec-01 23:30N 27°50' W 082°27'3 5.2
2017-Dec-01 23:00N 27°48' W 082°25'0 0.4
2017-Dec-01 22:30N 27°48' W 082°25'2 3.5
2017-Dec-01 22:00N 27°49' W 082°27'3 6.4
2017-Dec-01 21:30N 27°52' W 082°27'3 6.9
2017-Dec-01 21:00N 27°55' W 082°26'1 1.1
2017-Dec-01 20:30N 27°56' W 082°26'0 0.1
2017-Dec-01 20:00N 27°56' W 082°26'1 2.0
2017-Dec-01 19:30N 27°55' W 082°27'0 0.3
2017-Dec-01 19:00N 27°55' W 082°27'0 0.0
2017-Dec-01 18:30N 27°55' W 082°27'0 0.0
2017-Dec-01 18:00N 27°55' W 082°27'0 0.0
2017-Dec-01 17:30N 27°55' W 082°27'0 0.0
2017-Dec-01 17:00N 27°55' W 082°27'  

Dump ship's entire track history